createdAt,value
2019-02-11T00:00:28.805Z,25.17
2019-02-11T00:01:32.596Z,22.60
2019-02-11T00:02:36.395Z,26.50
2019-02-11T00:03:40.074Z,25.15
2019-02-11T00:04:44.086Z,27.07
2019-02-11T00:05:47.726Z,21.23
2019-02-11T00:06:51.498Z,23.27
2019-02-11T00:07:55.146Z,24.77
2019-02-11T00:08:58.859Z,26.17
2019-02-11T00:10:02.962Z,27.83
2019-02-11T00:11:06.661Z,24.18
2019-02-11T00:12:10.452Z,22.17
2019-02-11T00:13:14.119Z,26.42
2019-02-11T00:14:17.841Z,24.37
2019-02-11T00:15:21.505Z,29.98
2019-02-11T00:16:25.227Z,25.35
2019-02-11T00:17:28.995Z,29.00
2019-02-11T00:18:32.715Z,29.92
2019-02-11T00:19:37.048Z,26.42
2019-02-11T00:20:40.713Z,25.43
2019-02-11T00:21:44.414Z,25.93
2019-02-11T00:22:48.135Z,24.47
2019-02-11T00:23:51.774Z,26.07
2019-02-11T00:24:55.487Z,24.67
2019-02-11T00:25:59.284Z,22.02
2019-02-11T00:27:03.002Z,24.10
2019-02-11T00:28:06.769Z,27.07
2019-02-11T00:29:10.523Z,24.80
2019-02-11T00:30:14.256Z,25.05
2019-02-11T00:31:18.023Z,24.10
2019-02-11T00:32:21.849Z,22.65
2019-02-11T00:33:25.542Z,24.80
2019-02-11T00:34:29.237Z,22.65
2019-02-11T00:35:32.938Z,23.20
2019-02-11T00:36:36.630Z,23.07
2019-02-11T00:37:40.316Z,28.55
2019-02-11T00:38:44.009Z,25.90
2019-02-11T00:39:47.703Z,26.02
2019-02-11T00:40:51.398Z,23.57
2019-02-11T00:41:55.089Z,27.17
2019-02-11T00:42:58.786Z,21.10
2019-02-11T00:44:02.474Z,25.93
2019-02-11T00:45:07.827Z,25.77
2019-02-11T00:46:11.498Z,26.48
2019-02-11T00:47:15.157Z,25.45
2019-02-11T00:48:18.808Z,21.97
2019-02-11T00:49:22.681Z,26.40
2019-02-11T00:50:26.473Z,27.97
2019-02-11T00:51:30.501Z,23.67
2019-02-11T00:52:34.175Z,24.52
2019-02-11T00:53:37.897Z,28.67
2019-02-11T00:54:41.656Z,27.40
2019-02-11T00:55:45.388Z,25.32
2019-02-11T00:56:49.059Z,27.15
2019-02-11T00:57:53.247Z,25.27
2019-02-11T00:58:56.942Z,24.47
2019-02-11T01:00:00.641Z,25.17
2019-02-11T01:01:04.432Z,22.32
2019-02-11T01:02:08.433Z,23.45
2019-02-11T01:03:12.411Z,22.60
2019-02-11T01:04:16.129Z,23.77
2019-02-11T01:05:19.841Z,24.27
2019-02-11T01:06:23.617Z,23.83
2019-02-11T01:07:27.338Z,22.93
2019-02-11T01:08:30.987Z,21.35
2019-02-11T01:09:34.797Z,23.37
2019-02-11T01:10:38.498Z,24.95
2019-02-11T01:11:42.230Z,22.58
2019-02-11T01:12:46.213Z,24.63
2019-02-11T01:13:51.554Z,23.90
2019-02-11T01:14:55.476Z,21.30
2019-02-11T01:15:59.311Z,20.65
2019-02-11T01:17:03.110Z,21.90
2019-02-11T01:18:06.765Z,24.85
2019-02-11T01:19:10.459Z,22.80
2019-02-11T01:20:14.040Z,24.25
2019-02-11T01:21:18.193Z,24.80
2019-02-11T01:22:21.988Z,20.92
2019-02-11T01:23:25.677Z,22.55
2019-02-11T01:24:29.476Z,19.70
2019-02-11T01:25:33.167Z,20.62
2019-02-11T01:26:36.965Z,22.32
2019-02-11T01:27:40.754Z,20.48
2019-02-11T01:28:44.415Z,22.22
2019-02-11T01:29:48.256Z,22.22
2019-02-11T01:30:51.908Z,19.20
2019-02-11T01:31:55.572Z,20.27
2019-02-11T01:32:59.227Z,19.80
2019-02-11T01:34:02.916Z,21.00
2019-02-11T01:35:07.690Z,17.85
2019-02-11T01:36:11.347Z,21.95
2019-02-11T01:37:15.126Z,31.68
2019-02-11T01:38:18.822Z,25.05
2019-02-11T01:39:22.510Z,26.30
2019-02-11T01:40:26.288Z,19.85
2019-02-11T01:41:29.995Z,22.05
2019-02-11T01:42:33.663Z,21.07
2019-02-11T01:43:37.488Z,20.15
2019-02-11T01:44:41.145Z,22.35
2019-02-11T01:45:44.902Z,21.83
2019-02-11T01:46:48.566Z,22.37
2019-02-11T01:47:52.222Z,21.80
2019-02-11T01:48:55.947Z,18.95
2019-02-11T01:49:59.642Z,16.95
2019-02-11T01:51:03.541Z,15.78
2019-02-11T01:52:07.233Z,21.95
2019-02-11T01:53:11.336Z,19.30
2019-02-11T01:54:15.031Z,22.32
2019-02-11T01:55:18.720Z,23.15
2019-02-11T01:56:22.518Z,22.30
2019-02-11T01:57:26.619Z,19.80
2019-02-11T01:58:30.317Z,25.27
2019-02-11T01:59:33.985Z,23.77
2019-02-11T02:00:37.703Z,21.82
2019-02-11T02:01:41.500Z,22.50
2019-02-11T02:02:45.162Z,22.95
2019-02-11T02:03:48.882Z,23.87
2019-02-11T02:04:52.575Z,19.85
2019-02-11T02:05:56.252Z,25.65
2019-02-11T02:06:59.950Z,24.43
2019-02-11T02:08:03.642Z,21.35
2019-02-11T02:09:08.094Z,23.02
2019-02-11T02:10:14.307Z,22.95
2019-02-11T02:11:18.013Z,22.82
2019-02-11T02:12:21.807Z,26.82
2019-02-11T02:13:25.465Z,21.37
2019-02-11T02:14:29.191Z,21.45
2019-02-11T02:15:32.887Z,24.02
2019-02-11T02:16:36.577Z,21.00
2019-02-11T02:17:40.475Z,20.60
2019-02-11T02:18:44.172Z,21.95
2019-02-11T02:19:47.964Z,20.40
2019-02-11T02:20:52.070Z,21.35
2019-02-11T02:21:55.736Z,22.17
2019-02-11T02:22:59.455Z,19.35
2019-02-11T02:24:03.151Z,19.52
2019-02-11T02:25:08.707Z,22.90
2019-02-11T02:26:12.360Z,20.95
2019-02-11T02:27:16.070Z,25.20
2019-02-11T02:28:19.865Z,20.17
2019-02-11T02:29:23.520Z,20.15
2019-02-11T02:30:27.048Z,23.05
2019-02-11T02:31:30.637Z,21.73
2019-02-11T02:32:34.292Z,22.10
2019-02-11T02:33:38.024Z,23.25
2019-02-11T02:34:41.688Z,23.87
2019-02-11T02:35:45.207Z,23.87
2019-02-11T02:36:49.271Z,22.40
2019-02-11T02:37:53.010Z,23.73
2019-02-11T02:38:56.687Z,21.37
2019-02-11T02:40:00.720Z,26.77
2019-02-11T02:41:04.493Z,20.75
2019-02-11T02:42:08.186Z,22.25
2019-02-11T02:43:11.847Z,22.37
2019-02-11T02:44:15.586Z,23.67
2019-02-11T02:45:19.265Z,23.30
2019-02-11T02:46:23.080Z,24.07
2019-02-11T02:47:26.754Z,24.87
2019-02-11T02:48:30.447Z,21.97
2019-02-11T02:49:34.284Z,23.60
2019-02-11T02:50:37.836Z,23.80
2019-02-11T02:51:41.529Z,24.02
2019-02-11T02:52:45.248Z,22.50
2019-02-11T02:53:48.889Z,26.80
2019-02-11T02:54:52.586Z,25.55
2019-02-11T02:55:56.299Z,24.80
2019-02-11T02:56:59.962Z,27.20
2019-02-11T02:58:03.666Z,25.97
2019-02-11T02:59:07.387Z,23.98
2019-02-11T03:00:12.096Z,28.85
2019-02-11T03:01:16.026Z,24.12
2019-02-11T03:02:19.787Z,26.75
2019-02-11T03:03:23.470Z,30.45
2019-02-11T03:04:27.584Z,29.10
2019-02-11T03:05:31.484Z,30.62
2019-02-11T03:06:35.177Z,31.00
2019-02-11T03:07:38.895Z,31.20
2019-02-11T03:08:42.670Z,36.35
2019-02-11T03:09:46.693Z,30.00
2019-02-11T03:10:50.331Z,34.10
2019-02-11T03:11:53.954Z,32.80
2019-02-11T03:12:57.748Z,29.92
2019-02-11T03:14:05.603Z,30.02
2019-02-11T03:15:09.157Z,30.48
2019-02-11T03:16:12.915Z,25.60
2019-02-11T03:17:17.022Z,25.65
2019-02-11T03:18:20.691Z,28.80
2019-02-11T03:19:24.415Z,27.30
2019-02-11T03:20:28.135Z,25.15
2019-02-11T03:21:31.836Z,24.77
2019-02-11T03:22:35.446Z,24.57
2019-02-11T03:23:39.166Z,31.30
2019-02-11T03:24:42.978Z,25.40
2019-02-11T03:25:47.081Z,28.32
2019-02-11T03:26:51.285Z,25.90
2019-02-11T03:27:55.078Z,25.62
2019-02-11T03:28:58.878Z,26.27
2019-02-11T03:30:02.576Z,28.12
2019-02-11T03:31:06.163Z,28.85
2019-02-11T03:32:09.870Z,26.95
2019-02-11T03:33:13.553Z,29.35
2019-02-11T03:34:17.280Z,27.75
2019-02-11T03:35:20.872Z,30.20
2019-02-11T03:36:24.627Z,30.35
2019-02-11T03:37:28.651Z,32.30
2019-02-11T03:38:32.422Z,32.00
2019-02-11T03:39:36.218Z,33.23
2019-02-11T03:40:39.911Z,32.50
2019-02-11T03:41:43.656Z,28.23
2019-02-11T03:42:47.322Z,34.78
2019-02-11T03:43:51.409Z,34.83
2019-02-11T03:44:54.978Z,31.73
2019-02-11T03:45:58.686Z,36.88
2019-02-11T03:47:02.482Z,31.73
2019-02-11T03:48:06.279Z,36.20
2019-02-11T03:49:10.068Z,32.03
2019-02-11T03:50:13.762Z,36.03
2019-02-11T03:51:17.426Z,34.43
2019-02-11T03:52:21.150Z,34.13
2019-02-11T03:53:24.947Z,32.48
2019-02-11T03:54:28.746Z,30.60
2019-02-11T03:55:32.775Z,34.10
2019-02-11T03:56:36.539Z,38.63
2019-02-11T03:57:40.743Z,36.98
2019-02-11T03:58:44.440Z,36.93
2019-02-11T03:59:48.092Z,43.48
2019-02-11T04:00:51.924Z,34.48
2019-02-11T04:01:55.618Z,35.78
2019-02-11T04:02:59.824Z,34.30
2019-02-11T04:04:03.513Z,36.30
2019-02-11T04:05:07.978Z,30.72
2019-02-11T04:06:11.629Z,33.05
2019-02-11T04:07:15.319Z,36.38
2019-02-11T04:08:19.045Z,33.88
2019-02-11T04:09:22.698Z,37.10
2019-02-11T04:10:26.498Z,33.28
2019-02-11T04:11:30.156Z,34.38
2019-02-11T04:12:33.883Z,37.65
2019-02-11T04:13:37.677Z,36.35
2019-02-11T04:14:41.383Z,36.08
2019-02-11T04:15:45.061Z,38.98
2019-02-11T04:16:48.756Z,56.53
2019-02-11T04:17:52.407Z,40.85
2019-02-11T04:18:56.067Z,38.17
2019-02-11T04:19:59.835Z,43.10
2019-02-11T04:21:03.535Z,36.80
2019-02-11T04:22:08.407Z,37.03
2019-02-11T04:23:12.375Z,38.55
2019-02-11T04:24:16.159Z,37.75
2019-02-11T04:25:19.937Z,32.17
2019-02-11T04:26:23.600Z,35.05
2019-02-11T04:27:27.324Z,36.05
2019-02-11T04:28:31.223Z,37.17
2019-02-11T04:29:34.917Z,31.25
2019-02-11T04:30:38.710Z,34.60
2019-02-11T04:31:42.405Z,30.68
2019-02-11T04:32:46.095Z,30.25
2019-02-11T04:33:49.755Z,35.88
2019-02-11T04:34:53.489Z,27.52
2019-02-11T04:35:57.279Z,31.25
2019-02-11T04:37:01.074Z,27.87
2019-02-11T04:38:04.766Z,30.48
2019-02-11T04:39:08.886Z,29.90
2019-02-11T04:40:12.976Z,32.67
2019-02-11T04:41:16.673Z,31.82
2019-02-11T04:42:20.326Z,29.95
2019-02-11T04:43:24.287Z,34.43
2019-02-11T04:44:33.989Z,35.80
2019-02-11T04:45:33.387Z,35.75
2019-02-11T04:46:37.076Z,38.13
2019-02-11T04:47:40.771Z,35.80
2019-02-11T04:48:44.700Z,36.30
2019-02-11T04:49:48.363Z,34.23
2019-02-11T04:50:52.017Z,35.40
2019-02-11T04:51:55.746Z,56.02
2019-02-11T04:52:59.410Z,50.83
2019-02-11T04:54:03.049Z,51.95
2019-02-11T04:55:08.990Z,51.90
2019-02-11T04:56:12.671Z,60.05
2019-02-11T04:57:16.372Z,61.05
2019-02-11T04:58:20.144Z,59.77
2019-02-11T04:59:23.854Z,67.67
2019-02-11T05:00:27.894Z,76.77
2019-02-11T05:01:31.923Z,75.97
2019-02-11T05:02:35.628Z,70.15
2019-02-11T05:03:39.294Z,66.07
2019-02-11T05:04:43.039Z,57.67
2019-02-11T05:05:46.728Z,49.35
2019-02-11T05:06:50.421Z,48.87
2019-02-11T05:07:54.216Z,45.12
2019-02-11T05:08:57.868Z,43.23
2019-02-11T05:10:01.609Z,45.10
2019-02-11T05:11:05.304Z,45.78
2019-02-11T05:12:08.891Z,38.45
2019-02-11T05:13:12.918Z,38.00
2019-02-11T05:14:16.685Z,43.20
2019-02-11T05:15:20.791Z,44.55
2019-02-11T05:16:24.495Z,46.73
2019-02-11T05:17:28.195Z,62.65
2019-02-11T05:18:31.971Z,61.60
2019-02-11T05:19:35.662Z,49.13
2019-02-11T05:20:39.356Z,53.95
2019-02-11T05:21:43.022Z,56.63
2019-02-11T05:22:46.744Z,61.75
2019-02-11T05:23:50.538Z,61.77
2019-02-11T05:24:54.273Z,60.67
2019-02-11T05:25:57.935Z,72.72
2019-02-11T05:27:01.620Z,68.75
2019-02-11T05:28:05.308Z,55.80
2019-02-11T05:29:09.106Z,54.90
2019-02-11T05:30:12.764Z,50.55
2019-02-11T05:31:16.499Z,49.83
2019-02-11T05:32:20.285Z,45.70
2019-02-11T05:33:23.975Z,45.08
2019-02-11T05:34:27.649Z,48.87
2019-02-11T05:35:31.371Z,54.70
2019-02-11T05:36:35.160Z,60.98
2019-02-11T05:37:38.817Z,65.47
2019-02-11T05:38:42.549Z,63.80
2019-02-11T05:39:46.449Z,65.32
2019-02-11T05:40:50.039Z,54.98
2019-02-11T05:41:53.735Z,53.73
2019-02-11T05:42:57.678Z,56.10
2019-02-11T05:44:01.454Z,56.90
2019-02-11T05:45:06.770Z,42.13
2019-02-11T05:46:10.497Z,43.87
2019-02-11T05:47:14.245Z,45.40
2019-02-11T05:48:18.048Z,46.73
2019-02-11T05:49:22.139Z,48.73
2019-02-11T05:50:26.251Z,55.75
2019-02-11T05:51:29.940Z,57.25
2019-02-11T05:52:33.633Z,62.25
2019-02-11T05:53:37.284Z,65.92
2019-02-11T05:54:41.022Z,66.65
2019-02-11T05:55:44.810Z,70.03
2019-02-11T05:56:48.501Z,69.62
2019-02-11T05:57:52.304Z,64.92
2019-02-11T05:58:56.096Z,70.80
2019-02-11T05:59:59.781Z,63.92
2019-02-11T06:01:03.591Z,60.95
2019-02-11T06:02:07.287Z,56.70
2019-02-11T06:03:10.979Z,53.52
2019-02-11T06:04:14.666Z,55.03
2019-02-11T06:05:18.384Z,65.52
2019-02-11T06:06:22.154Z,68.17
2019-02-11T06:07:25.863Z,76.07
2019-02-11T06:08:29.647Z,132.07
2019-02-11T06:09:33.316Z,185.85
2019-02-11T06:10:37.111Z,206.17
2019-02-11T06:11:40.799Z,189.00
2019-02-11T06:12:44.517Z,182.50
2019-02-11T06:13:48.214Z,179.18
2019-02-11T06:14:52.009Z,160.52
2019-02-11T06:15:55.661Z,163.40
2019-02-11T06:16:59.396Z,182.82
2019-02-11T06:18:03.159Z,174.42
2019-02-11T06:19:07.216Z,176.37
2019-02-11T06:20:11.251Z,150.68
2019-02-11T06:21:14.961Z,165.57
2019-02-11T06:22:18.780Z,122.72
2019-02-11T06:23:22.581Z,125.38
2019-02-11T06:24:26.245Z,144.47
2019-02-11T06:25:29.963Z,121.82
2019-02-11T06:26:33.621Z,110.92
2019-02-11T06:27:37.203Z,98.40
2019-02-11T06:28:40.902Z,92.85
2019-02-11T06:29:44.634Z,86.25
2019-02-11T06:30:48.302Z,89.22
2019-02-11T06:31:51.891Z,90.53
2019-02-11T06:32:55.510Z,102.75
2019-02-11T06:33:59.212Z,102.00
2019-02-11T06:35:02.999Z,95.10
2019-02-11T06:36:12.582Z,86.12
2019-02-11T06:37:12.126Z,89.05
2019-02-11T06:38:15.816Z,87.72
2019-02-11T06:39:19.494Z,90.67
2019-02-11T06:40:23.156Z,78.40
2019-02-11T06:41:26.804Z,77.45
2019-02-11T06:42:30.486Z,76.47
2019-02-11T06:43:34.177Z,73.50
2019-02-11T06:44:37.821Z,72.50
2019-02-11T06:45:41.908Z,76.77
2019-02-11T06:46:45.574Z,74.47
2019-02-11T06:47:49.368Z,70.35
2019-02-11T06:48:53.057Z,63.25
2019-02-11T06:49:56.750Z,62.73
2019-02-11T06:51:00.956Z,60.80
2019-02-11T06:52:05.058Z,55.35
2019-02-11T06:53:08.763Z,74.85
2019-02-11T06:54:12.441Z,72.97
2019-02-11T06:55:16.227Z,78.87
2019-02-11T06:56:19.930Z,72.70
2019-02-11T06:57:23.593Z,76.77
2019-02-11T06:58:27.312Z,81.73
2019-02-11T06:59:30.964Z,81.47
2019-02-11T07:00:34.693Z,74.05
2019-02-11T07:01:38.356Z,82.73
2019-02-11T07:02:42.005Z,73.00
2019-02-11T07:03:45.888Z,75.17
2019-02-11T07:04:49.581Z,99.77
2019-02-11T07:05:53.258Z,153.83
2019-02-11T07:06:56.936Z,205.13
2019-02-11T07:08:00.519Z,226.73
2019-02-11T07:09:05.407Z,141.07
2019-02-11T07:10:11.239Z,104.87
2019-02-11T07:11:14.925Z,86.73
2019-02-11T07:12:18.713Z,82.97
2019-02-11T07:13:22.401Z,79.07
2019-02-11T07:14:26.095Z,68.73
2019-02-11T07:15:29.788Z,70.10
2019-02-11T07:16:33.620Z,69.43
2019-02-11T07:17:37.463Z,60.40
2019-02-11T07:18:41.107Z,55.90
2019-02-11T07:19:44.788Z,64.93
2019-02-11T07:20:48.569Z,61.27
2019-02-11T07:21:52.251Z,53.53
2019-02-11T07:22:55.901Z,51.80
2019-02-11T07:23:59.642Z,55.23
2019-02-11T07:25:03.438Z,59.20
2019-02-11T07:26:07.126Z,56.73
2019-02-11T07:27:10.820Z,49.57
2019-02-11T07:28:14.924Z,53.63
2019-02-11T07:29:18.681Z,50.60
2019-02-11T07:30:22.301Z,48.33
2019-02-11T07:31:26.242Z,48.37
2019-02-11T07:32:30.006Z,50.87
2019-02-11T07:33:33.701Z,47.13
2019-02-11T07:34:37.395Z,52.67
2019-02-11T07:35:41.540Z,46.30
2019-02-11T07:36:45.201Z,45.23
2019-02-11T07:37:48.986Z,38.53
2019-02-11T07:38:52.707Z,35.93
2019-02-11T07:39:56.478Z,37.23
2019-02-11T07:41:00.170Z,41.67
2019-02-11T07:42:11.536Z,41.97
2019-02-11T07:43:18.794Z,52.10
2019-02-11T07:44:23.983Z,39.23
2019-02-11T07:45:30.296Z,39.97
2019-02-11T07:46:35.843Z,41.37
2019-02-11T07:47:39.524Z,35.87
2019-02-11T07:48:43.326Z,40.93
2019-02-11T07:49:47.052Z,36.00
2019-02-11T07:50:50.912Z,34.80
2019-02-11T07:51:54.710Z,33.23
2019-02-11T07:52:58.408Z,33.13
2019-02-11T07:54:02.101Z,38.40
2019-02-11T07:55:06.254Z,35.63
2019-02-11T07:56:09.992Z,36.33
2019-02-11T07:57:15.622Z,42.73
2019-02-11T07:58:20.811Z,38.93
2019-02-11T07:59:24.494Z,37.20
2019-02-11T08:00:28.222Z,32.90
2019-02-11T08:01:31.871Z,38.10
2019-02-11T08:02:35.877Z,33.90
2019-02-11T08:03:39.920Z,43.40
2019-02-11T08:04:43.638Z,36.70
2019-02-11T08:05:47.439Z,35.63
2019-02-11T08:06:51.535Z,31.57
2019-02-11T08:07:55.332Z,34.53
2019-02-11T08:08:58.915Z,34.33
2019-02-11T08:10:02.668Z,33.37
2019-02-11T08:11:06.384Z,33.97
2019-02-11T08:12:09.971Z,32.83
2019-02-11T08:13:13.695Z,32.57
2019-02-11T08:14:17.389Z,27.40
2019-02-11T08:15:21.087Z,33.90
2019-02-11T08:16:24.776Z,32.43
2019-02-11T08:17:28.712Z,34.23
2019-02-11T08:18:34.114Z,29.33
2019-02-11T08:19:37.775Z,34.80
2019-02-11T08:20:41.556Z,35.07
2019-02-11T08:21:45.637Z,30.77
2019-02-11T08:22:49.389Z,32.37
2019-02-11T08:23:53.196Z,32.47
2019-02-11T08:24:56.879Z,34.43
2019-02-11T08:26:02.721Z,31.60
2019-02-11T08:27:12.834Z,31.50
2019-02-11T08:28:19.416Z,36.97
2019-02-11T08:29:17.282Z,36.03
2019-02-11T08:30:21.092Z,30.83
2019-02-11T08:31:24.985Z,31.73
2019-02-11T08:32:31.546Z,33.80
2019-02-11T08:33:35.209Z,34.00
2019-02-11T08:34:38.967Z,31.17
2019-02-11T08:35:42.668Z,30.13
2019-02-11T08:36:46.946Z,34.73
2019-02-11T08:37:50.727Z,31.27
2019-02-11T08:38:54.398Z,29.60
2019-02-11T08:39:58.050Z,33.33
2019-02-11T08:41:01.706Z,32.47
2019-02-11T08:42:05.800Z,31.67
2019-02-11T08:43:09.443Z,33.03
2019-02-11T08:44:13.171Z,29.10
2019-02-11T08:45:16.897Z,35.03
2019-02-11T08:46:20.571Z,28.67
2019-02-11T08:47:24.271Z,28.77
2019-02-11T08:48:28.066Z,31.40
2019-02-11T08:49:33.812Z,28.60
2019-02-11T08:50:39.153Z,29.77
2019-02-11T08:51:42.835Z,29.87
2019-02-11T08:52:46.577Z,24.97
2019-02-11T08:53:50.327Z,28.17
2019-02-11T08:54:54.015Z,27.20
2019-02-11T08:55:57.703Z,23.80
2019-02-11T08:57:01.434Z,30.67
2019-02-11T08:58:05.199Z,24.63
2019-02-11T08:59:08.899Z,23.93
2019-02-11T09:00:13.134Z,23.87
2019-02-11T09:01:16.795Z,26.87
2019-02-11T09:02:20.594Z,27.23
2019-02-11T09:03:24.276Z,27.63
2019-02-11T09:04:31.218Z,26.30
2019-02-11T09:05:35.042Z,25.37
2019-02-11T09:06:38.836Z,27.00
2019-02-11T09:07:42.544Z,24.60
2019-02-11T09:08:46.432Z,23.63
2019-02-11T09:09:50.228Z,22.63
2019-02-11T09:10:53.914Z,22.23
2019-02-11T09:11:57.722Z,25.43
2019-02-11T09:13:01.508Z,26.83
2019-02-11T09:14:05.210Z,27.60
2019-02-11T09:15:11.646Z,29.13
2019-02-11T09:16:15.454Z,28.03
2019-02-11T09:17:19.263Z,18.00
2019-02-11T09:18:26.836Z,23.50
2019-02-11T09:19:30.535Z,20.30
2019-02-11T09:20:34.904Z,19.93
2019-02-11T09:21:38.635Z,22.00
2019-02-11T09:22:42.428Z,21.53
2019-02-11T09:23:47.958Z,21.57
2019-02-11T09:24:51.711Z,21.93
2019-02-11T09:25:55.452Z,24.60
2019-02-11T09:26:59.250Z,21.17
2019-02-11T09:28:04.561Z,26.47
2019-02-11T09:29:08.373Z,24.10
2019-02-11T09:30:15.144Z,18.27
2019-02-11T09:31:20.375Z,17.33
2019-02-11T09:32:24.079Z,18.07
2019-02-11T09:33:27.740Z,19.20
2019-02-11T09:34:34.671Z,23.57
2019-02-11T09:35:38.594Z,16.83
2019-02-11T09:36:42.326Z,24.30
2019-02-11T09:37:45.981Z,21.40
2019-02-11T09:38:49.650Z,20.63
2019-02-11T09:39:53.409Z,20.90
2019-02-11T09:40:57.189Z,22.07
2019-02-11T09:42:00.883Z,24.37
2019-02-11T09:43:04.574Z,19.80
2019-02-11T09:44:08.272Z,22.80
2019-02-11T09:45:17.209Z,24.20
2019-02-11T09:46:21.806Z,18.70
2019-02-11T09:47:25.599Z,21.37
2019-02-11T09:48:29.390Z,24.10
2019-02-11T09:49:33.185Z,21.87
2019-02-11T09:50:45.348Z,19.80
2019-02-11T09:51:49.525Z,19.80
2019-02-11T09:52:53.293Z,18.67
2019-02-11T09:53:57.040Z,22.17
2019-02-11T09:55:00.769Z,17.97
2019-02-11T09:56:04.981Z,16.13
2019-02-11T09:57:08.675Z,22.30
2019-02-11T09:58:12.359Z,26.63
2019-02-11T09:59:16.153Z,24.87
2019-02-11T10:00:20.051Z,19.47
2019-02-11T10:01:23.852Z,22.40
2019-02-11T10:02:27.985Z,24.97
2019-02-11T10:03:31.744Z,21.30
2019-02-11T10:04:36.737Z,20.40
2019-02-11T10:05:40.461Z,19.37
2019-02-11T10:06:44.289Z,19.90
2019-02-11T10:07:48.064Z,21.47
2019-02-11T10:08:51.850Z,20.50
2019-02-11T10:09:55.595Z,20.37
2019-02-11T10:10:59.198Z,19.57
2019-02-11T10:12:03.820Z,16.47
2019-02-11T10:13:07.647Z,21.27
2019-02-11T10:14:11.432Z,20.13
2019-02-11T10:15:15.788Z,16.40
2019-02-11T10:16:19.707Z,19.33
2019-02-11T10:17:29.631Z,16.77
2019-02-11T10:18:29.196Z,19.83
2019-02-11T10:19:34.874Z,20.80
2019-02-11T10:20:39.107Z,16.83
2019-02-11T10:21:43.036Z,20.43
2019-02-11T10:22:47.056Z,61.87
2019-02-11T10:23:51.575Z,26.57
2019-02-11T10:24:56.834Z,20.17
2019-02-11T10:26:00.510Z,15.77
2019-02-11T10:27:04.569Z,16.80
2019-02-11T10:28:10.539Z,17.03
2019-02-11T10:29:14.519Z,13.50
2019-02-11T10:30:18.716Z,17.63
2019-02-11T10:31:22.515Z,19.63
2019-02-11T10:32:26.754Z,17.10
2019-02-11T10:33:37.240Z,25.33
2019-02-11T10:34:41.002Z,27.10
2019-02-11T10:35:44.857Z,31.77
2019-02-11T10:36:48.628Z,35.10
2019-02-11T10:37:52.252Z,22.17
2019-02-11T10:38:55.992Z,26.40
2019-02-11T10:39:59.893Z,19.50
2019-02-11T10:41:03.639Z,16.63
2019-02-11T10:42:07.316Z,22.17
2019-02-11T10:43:11.064Z,19.67
2019-02-11T10:44:14.716Z,22.97
2019-02-11T10:45:18.483Z,19.07
2019-02-11T10:46:22.137Z,18.87
2019-02-11T10:47:25.793Z,20.30
2019-02-11T10:48:29.590Z,16.83
2019-02-11T10:49:33.312Z,20.63
2019-02-11T10:50:37.000Z,18.60
2019-02-11T10:51:40.728Z,16.23
2019-02-11T10:52:44.394Z,16.67
2019-02-11T10:53:48.062Z,15.43
2019-02-11T10:54:51.725Z,21.57
2019-02-11T10:55:55.778Z,20.47
2019-02-11T10:56:59.435Z,17.20
2019-02-11T10:58:03.098Z,17.77
2019-02-11T10:59:06.757Z,22.20
2019-02-11T11:00:16.006Z,23.37
2019-02-11T11:01:19.701Z,18.63
2019-02-11T11:02:23.438Z,16.67
2019-02-11T11:03:27.171Z,25.53
2019-02-11T11:04:31.164Z,20.87
2019-02-11T11:05:34.822Z,26.80
2019-02-11T11:06:38.823Z,21.00
2019-02-11T11:07:42.520Z,15.73
2019-02-11T11:08:46.115Z,18.17
2019-02-11T11:09:49.836Z,15.30
2019-02-11T11:10:53.497Z,18.97
2019-02-11T11:11:57.213Z,21.53
2019-02-11T11:13:00.986Z,19.27
2019-02-11T11:14:06.089Z,16.57
2019-02-11T11:15:10.725Z,18.63
2019-02-11T11:16:14.421Z,17.30
2019-02-11T11:17:18.109Z,16.70
2019-02-11T11:18:23.238Z,18.43
2019-02-11T11:19:27.344Z,19.03
2019-02-11T11:20:31.530Z,19.43
2019-02-11T11:21:35.444Z,22.40
2019-02-11T11:22:39.247Z,16.40
2019-02-11T11:23:42.935Z,17.17
2019-02-11T11:24:46.598Z,15.53
2019-02-11T11:25:50.251Z,16.73
2019-02-11T11:26:53.905Z,18.33
2019-02-11T11:27:57.712Z,20.20
2019-02-11T11:29:01.809Z,19.40
2019-02-11T11:30:12.019Z,16.70
2019-02-11T11:31:15.607Z,13.97
2019-02-11T11:32:19.646Z,14.80
2019-02-11T11:33:23.448Z,14.67
2019-02-11T11:34:27.138Z,16.30
2019-02-11T11:35:30.936Z,20.07
2019-02-11T11:36:34.726Z,18.03
2019-02-11T11:37:38.400Z,18.03
2019-02-11T11:38:44.957Z,19.43
2019-02-11T11:39:48.689Z,25.50
2019-02-11T11:40:52.475Z,106.93
2019-02-11T11:41:56.124Z,22.33
2019-02-11T11:42:59.958Z,22.67
2019-02-11T11:44:03.665Z,26.10
2019-02-11T11:45:13.189Z,21.53
2019-02-11T11:46:16.840Z,20.03
2019-02-11T11:47:20.576Z,20.00
2019-02-11T11:48:24.262Z,18.03
2019-02-11T11:49:30.369Z,20.97
2019-02-11T11:50:34.111Z,17.53
2019-02-11T11:51:37.771Z,16.80
2019-02-11T11:52:41.426Z,20.83
2019-02-11T11:53:45.086Z,19.80
2019-02-11T11:54:48.881Z,21.87
2019-02-11T11:55:52.601Z,21.60
2019-02-11T11:56:59.296Z,30.13
2019-02-11T11:58:02.046Z,35.30
2019-02-11T11:59:05.748Z,23.10
2019-02-11T12:00:24.374Z,23.07
2019-02-11T12:01:29.980Z,20.00
2019-02-11T12:02:33.711Z,20.60
2019-02-11T12:03:37.476Z,19.40
2019-02-11T12:04:41.199Z,23.33
2019-02-11T12:05:45.066Z,18.50
2019-02-11T12:06:48.765Z,22.73
2019-02-11T12:07:52.599Z,20.93
2019-02-11T12:08:59.207Z,21.20
2019-02-11T12:10:01.789Z,26.00
2019-02-11T12:11:05.584Z,20.53
2019-02-11T12:12:12.933Z,18.77
2019-02-11T12:13:22.278Z,19.27
2019-02-11T12:14:20.741Z,17.20
2019-02-11T12:15:27.127Z,20.30
2019-02-11T12:16:31.113Z,17.60
2019-02-11T12:17:34.806Z,22.47
2019-02-11T12:18:38.463Z,19.63
2019-02-11T12:19:42.186Z,14.30
2019-02-11T12:20:45.884Z,13.60
2019-02-11T12:21:49.682Z,24.67
2019-02-11T12:22:53.373Z,20.63
2019-02-11T12:23:57.022Z,18.53
2019-02-11T12:25:00.663Z,17.13
2019-02-11T12:26:04.637Z,15.70
2019-02-11T12:27:08.220Z,14.90
2019-02-11T12:28:11.858Z,17.43
2019-02-11T12:29:15.563Z,18.80
2019-02-11T12:30:26.859Z,22.07
2019-02-11T12:31:30.561Z,20.63
2019-02-11T12:32:34.396Z,17.77
2019-02-11T12:33:38.191Z,29.93
2019-02-11T12:34:41.842Z,22.10
2019-02-11T12:35:45.395Z,17.13
2019-02-11T12:36:52.716Z,16.63
2019-02-11T12:37:56.453Z,13.37
2019-02-11T12:39:00.001Z,15.27
2019-02-11T12:40:04.241Z,17.03
2019-02-11T12:41:07.950Z,20.00
2019-02-11T12:42:11.659Z,13.50
2019-02-11T12:43:15.325Z,16.03
2019-02-11T12:44:19.346Z,12.27
2019-02-11T12:45:24.765Z,15.03
2019-02-11T12:46:28.418Z,12.40
2019-02-11T12:47:32.143Z,16.20
2019-02-11T12:48:35.807Z,16.37
2019-02-11T12:49:39.513Z,15.87
2019-02-11T12:50:43.144Z,15.90
2019-02-11T12:51:46.783Z,14.93
2019-02-11T12:52:50.482Z,15.20
2019-02-11T12:53:54.222Z,22.87
2019-02-11T12:54:57.935Z,15.43
2019-02-11T12:56:02.645Z,14.00
2019-02-11T12:57:06.787Z,21.17
2019-02-11T12:58:10.418Z,14.37
2019-02-11T12:59:14.098Z,15.57
2019-02-11T13:00:24.451Z,18.23
2019-02-11T13:01:28.095Z,15.60
2019-02-11T13:02:31.722Z,19.83
2019-02-11T13:03:35.437Z,15.40
2019-02-11T13:04:39.204Z,21.97
2019-02-11T13:05:45.542Z,20.90
2019-02-11T13:06:48.267Z,16.87
2019-02-11T13:07:53.972Z,14.10
2019-02-11T13:08:57.661Z,16.37
2019-02-11T13:10:01.453Z,18.87
2019-02-11T13:11:05.361Z,23.70
2019-02-11T13:12:09.156Z,16.17
2019-02-11T13:13:12.869Z,22.73
2019-02-11T13:14:16.757Z,21.13
2019-02-11T13:15:52.829Z,25.23
2019-02-11T13:16:25.870Z,17.13
2019-02-11T13:17:33.705Z,16.47
2019-02-11T13:18:39.108Z,20.33
2019-02-11T13:19:40.430Z,19.40
2019-02-11T13:20:44.194Z,21.17
2019-02-11T13:21:47.901Z,21.53
2019-02-11T13:22:52.002Z,18.17
2019-02-11T13:23:55.702Z,17.07
2019-02-11T13:24:59.345Z,19.23
2019-02-11T13:26:03.284Z,22.70
2019-02-11T13:27:07.025Z,19.00
2019-02-11T13:28:10.697Z,18.13
2019-02-11T13:29:14.294Z,18.07
2019-02-11T13:30:22.441Z,17.73
2019-02-11T13:31:26.157Z,21.97
2019-02-11T13:32:29.799Z,20.33
2019-02-11T13:33:33.536Z,19.47
2019-02-11T13:34:37.222Z,19.23
2019-02-11T13:35:40.876Z,22.00
2019-02-11T13:36:44.624Z,16.27
2019-02-11T13:37:54.770Z,21.43
2019-02-11T13:38:56.448Z,20.93
2019-02-11T13:40:00.208Z,23.50
2019-02-11T13:41:03.945Z,20.20
2019-02-11T13:42:07.603Z,19.70
2019-02-11T13:43:11.318Z,16.50